Terminal Aerodrome Forecast
Issued by NWS

Home | Current Version | Previous Version | Text Only | Print | Product List | Glossary On
Versions: 1 2 3 4 5 6 7 8 9 10 11 12 13 14 15 16 17 18 19 20 21 22 23 24 25 26 27
502
FTUS44 KFWD 250310 AAA
TAFAFW
TAF AMD
KAFW 250310Z 2503/2524 04005KT P6SM OVC250
     FM250600 05004KT P6SM VCSH SCT050 BKN120
     FM251000 02004KT P6SM BKN050
     FM251300 34014KT P6SM BKN015
     FM251800 34015KT P6SM -SHRA BKN015=

USA.gov is the U.S. government's official web portal to all federal, state and local government web resources and services.